Time;durP1;ratioP1;P1;durP2;ratioP2;P2;SDS_P1;SDS_P2;PMS_P1;PMS_P2;Temp;Humidity;BMP_temperature;BMP_pressure;BME280_temperature;BME280_humidity;BME280_pressure;Samples;Min_cycle;Max_cycle;Signal;HPM_P1;HPM_P2
2021/03/16 05:00:42;;;;;;;14.25;7.47;;;2.50;99.90;;;;;;5717699;23;20300;-70
2021/03/16 05:03:08;;;;;;;13.95;9.00;;;2.60;99.90;;;;;;4877615;29;20212;-70
2021/03/16 05:05:35;;;;;;;15.85;9.02;;;2.60;99.90;;;;;;4876265;29;20212;-70
2021/03/16 05:08:01;;;;;;;13.23;7.43;;;2.70;99.90;;;;;;4878181;29;20216;-70
2021/03/16 05:10:27;;;;;;;20.25;8.55;;;2.70;99.90;;;;;;4877153;29;20244;-70
2021/03/16 05:12:53;;;;;;;16.10;9.85;;;2.80;99.90;;;;;;4862542;29;20232;-71
2021/03/16 05:15:20;;;;;;;14.02;8.52;;;2.80;99.90;;;;;;4847496;29;20213;-71
2021/03/16 05:17:47;;;;;;;14.00;8.25;;;2.90;99.90;;;;;;4867686;29;20220;-71
2021/03/16 05:20:13;;;;;;;16.20;8.73;;;2.90;99.90;;;;;;4862208;29;20663;-71
2021/03/16 05:22:39;;;;;;;12.27;8.88;;;2.90;99.90;;;;;;4863037;29;20210;-71
2021/03/16 05:25:07;;;;;;;25.23;9.32;;;3.00;99.90;;;;;;4846137;29;20208;-71
2021/03/16 05:27:33;;;;;;;25.65;8.80;;;3.00;99.90;;;;;;4880691;29;20294;-71
2021/03/16 05:29:59;;;;;;;20.38;8.57;;;3.00;99.90;;;;;;4880825;29;20251;-73
2021/03/16 05:32:25;;;;;;;15.65;8.07;;;3.10;99.90;;;;;;4862362;29;20236;-73
2021/03/16 05:34:52;;;;;;;19.17;8.00;;;3.10;99.90;;;;;;4864479;29;20227;-71
2021/03/16 05:37:19;;;;;;;30.90;10.05;;;3.20;99.90;;;;;;4874946;29;20208;-72
2021/03/16 05:39:45;;;;;;;16.35;7.63;;;3.20;99.90;;;;;;4862489;29;20649;-71
2021/03/16 05:42:11;;;;;;;11.35;7.00;;;3.20;99.90;;;;;;4859195;29;20228;-71
2021/03/16 05:44:38;;;;;;;17.08;7.30;;;3.30;99.90;;;;;;4862627;29;20229;-71
2021/03/16 05:47:05;;;;;;;9.60;5.95;;;3.30;99.90;;;;;;4872924;29;20204;-72
2021/03/16 05:49:32;;;;;;;10.27;8.00;;;3.30;99.90;;;;;;4880637;29;20339;-72
2021/03/16 05:52:00;;;;;;;14.05;7.40;;;3.40;99.90;;;;;;4875839;29;20224;-71
2021/03/16 05:54:26;;;;;;;19.10;9.40;;;3.40;99.90;;;;;;4869834;29;20298;-73
2021/03/16 05:56:53;;;;;;;15.63;7.40;;;3.40;99.90;;;;;;4862906;29;20213;-72
2021/03/16 05:59:20;;;;;;;9.90;7.20;;;3.50;99.90;;;;;;4862623;29;20205;-72
2021/03/16 06:01:46;;;;;;;12.85;7.10;;;3.50;99.90;;;;;;4866913;29;20343;-72
2021/03/16 06:04:12;;;;;;;14.10;7.47;;;3.50;99.90;;;;;;4871365;29;20221;-71
2021/03/16 06:06:39;;;;;;;16.77;7.80;;;3.60;99.90;;;;;;4865300;29;20568;-72
2021/03/16 06:09:06;;;;;;;25.50;9.15;;;3.60;99.90;;;;;;4871361;29;20232;-73
2021/03/16 06:11:33;;;;;;;14.60;7.22;;;3.70;99.90;;;;;;4867355;29;20703;-73
2021/03/16 06:14:00;;;;;;;14.20;7.57;;;3.70;99.90;;;;;;4872593;29;20201;-73
2021/03/16 06:16:26;;;;;;;13.43;6.20;;;3.70;99.90;;;;;;4866440;29;20337;-73
2021/03/16 06:18:53;;;;;;;8.48;6.75;;;3.80;99.90;;;;;;4873578;29;20200;-74
2021/03/16 06:21:20;;;;;;;12.48;5.45;;;3.80;99.90;;;;;;4863565;29;20656;-72
2021/03/16 06:23:54;;;;;;;15.18;6.30;;;3.80;99.90;;;;;;4874281;29;20204;-73
2021/03/16 06:26:24;;;;;;;14.10;5.93;;;3.90;99.90;;;;;;4863905;29;20256;-71
2021/03/16 06:28:51;;;;;;;17.23;6.72;;;3.90;99.90;;;;;;4874094;29;20264;-72
2021/03/16 06:31:22;;;;;;;8.23;5.05;;;4.00;99.90;;;;;;4861521;29;20241;-72
2021/03/16 06:33:49;;;;;;;12.63;5.88;;;4.10;99.90;;;;;;4874403;29;20212;-70
2021/03/16 06:36:15;;;;;;;15.05;5.93;;;4.10;99.90;;;;;;4874202;29;20227;-69
2021/03/16 06:38:42;;;;;;;13.00;5.47;;;4.10;99.90;;;;;;4876743;29;20205;-70
2021/03/16 06:41:11;;;;;;;8.75;4.53;;;4.20;99.90;;;;;;4871496;29;20232;-70
2021/03/16 06:43:39;;;;;;;9.18;4.40;;;4.30;99.90;;;;;;4860035;29;20628;-70
2021/03/16 06:46:05;;;;;;;12.07;5.03;;;4.30;99.90;;;;;;4867261;29;20303;-72
2021/03/16 06:48:36;;;;;;;10.13;5.72;;;4.40;99.90;;;;;;4878612;29;20220;-71
2021/03/16 06:51:11;;;;;;;13.90;5.32;;;4.40;99.90;;;;;;4871509;29;20728;-72
2021/03/16 06:53:37;;;;;;;9.30;4.38;;;4.50;99.90;;;;;;4872521;29;20207;-72
2021/03/16 06:56:04;;;;;;;8.25;3.53;;;4.50;99.90;;;;;;4868824;29;20212;-70
2021/03/16 06:58:31;;;;;;;9.93;5.63;;;4.50;99.90;;;;;;4844194;29;20217;-70
2021/03/16 07:01:07;;;;;;;6.25;3.92;;;4.60;99.90;;;;;;4869723;29;20339;-70
2021/03/16 07:03:33;;;;;;;5.35;3.38;;;4.70;99.90;;;;;;4861555;29;20208;-70
2021/03/16 07:06:10;;;;;;;9.40;4.00;;;4.70;99.90;;;;;;4874021;29;20216;-69
2021/03/16 07:08:37;;;;;;;14.65;3.60;;;4.80;99.90;;;;;;4861742;29;20216;-70
2021/03/16 07:11:05;;;;;;;7.97;2.80;;;4.80;99.90;;;;;;4874650;29;20550;-71
2021/03/16 07:13:33;;;;;;;3.35;2.83;;;4.90;99.90;;;;;;4864322;29;20223;-73
2021/03/16 07:15:59;;;;;;;7.03;3.10;;;4.90;99.90;;;;;;4872334;29;20213;-73
2021/03/16 07:18:28;;;;;;;8.43;2.63;;;5.00;99.90;;;;;;4861693;29;20302;-73
2021/03/16 07:20:57;;;;;;;5.35;2.72;;;5.00;99.90;;;;;;4865785;29;20940;-72
2021/03/16 07:23:25;;;;;;;6.55;2.40;;;5.10;99.90;;;;;;4860627;29;20303;-72
2021/03/16 07:25:53;;;;;;;5.47;2.83;;;5.20;99.90;;;;;;4852184;29;20209;-72
2021/03/16 07:28:19;;;;;;;4.57;2.60;;;5.20;99.90;;;;;;4842303;29;20212;-72
2021/03/16 07:30:46;;;;;;;9.75;3.47;;;5.20;99.90;;;;;;4842563;29;20650;-72
2021/03/16 07:33:14;;;;;;;6.85;2.58;;;5.30;99.90;;;;;;4843030;29;20208;-72
2021/03/16 07:35:41;;;;;;;8.45;2.72;;;5.40;99.90;;;;;;4873883;29;20635;-71
2021/03/16 07:38:09;;;;;;;7.20;3.45;;;5.30;99.90;;;;;;4879509;29;20293;-72
2021/03/16 07:40:36;;;;;;;8.40;3.10;;;5.50;99.90;;;;;;4865663;29;20288;-71
2021/03/16 07:43:02;;;;;;;4.43;2.45;;;5.50;99.90;;;;;;4860298;29;20212;-72
2021/03/16 07:45:30;;;;;;;4.82;2.88;;;5.60;99.90;;;;;;4876647;29;20616;-71
2021/03/16 07:47:57;;;;;;;6.50;2.63;;;5.60;99.90;;;;;;4874525;29;20629;-70
2021/03/16 07:50:27;;;;;;;3.20;2.58;;;5.60;99.90;;;;;;4863648;29;20286;-70
2021/03/16 07:52:54;;;;;;;6.90;2.20;;;5.70;99.90;;;;;;4863428;29;20209;-71
2021/03/16 07:55:28;;;;;;;8.05;2.10;;;5.70;99.90;;;;;;4846991;29;20212;-71
2021/03/16 07:58:06;;;;;;;5.10;2.17;;;5.80;99.90;;;;;;4841796;29;20213;-70
2021/03/16 08:00:32;;;;;;;4.13;2.50;;;5.80;99.90;;;;;;4843888;29;20524;-71
2021/03/16 08:03:00;;;;;;;3.42;2.20;;;5.80;99.90;;;;;;4857525;29;20209;-71
2021/03/16 08:05:27;;;;;;;4.95;3.20;;;5.90;99.90;;;;;;4853260;29;20228;-71
2021/03/16 08:07:54;;;;;;;5.68;2.80;;;5.90;99.90;;;;;;4871388;29;20226;-70
2021/03/16 08:10:27;;;;;;;8.98;2.33;;;5.90;99.90;;;;;;4859830;29;20232;-70
2021/03/16 08:13:01;;;;;;;8.23;2.53;;;6.00;99.90;;;;;;4876672;29;20212;-71
2021/03/16 08:15:39;;;;;;;14.77;2.05;;;6.00;99.90;;;;;;4878895;29;20594;-70
2021/03/16 08:18:05;;;;;;;2.83;2.63;;;6.00;99.90;;;;;;4877110;29;20621;-71
2021/03/16 08:20:31;;;;;;;6.57;2.85;;;6.10;99.90;;;;;;4878055;29;20732;-71
2021/03/16 08:23:19;;;;;;;6.45;2.35;;;6.20;99.90;;;;;;4868480;29;20285;-70
2021/03/16 08:25:48;;;;;;;5.03;3.00;;;6.20;99.90;;;;;;4857050;29;20671;-70
2021/03/16 08:28:17;;;;;;;2.45;1.50;;;6.30;99.90;;;;;;4877635;29;20208;-71
2021/03/16 08:30:43;;;;;;;8.25;2.80;;;6.30;99.90;;;;;;4859860;29;20261;-71
2021/03/16 08:33:12;;;;;;;6.43;2.38;;;6.40;99.90;;;;;;4860173;29;20212;-71
2021/03/16 08:35:43;;;;;;;6.55;2.70;;;6.40;99.90;;;;;;4857207;29;20213;-71
2021/03/16 08:38:09;;;;;;;4.35;1.77;;;6.50;99.90;;;;;;4859576;29;20208;-71
2021/03/16 08:40:36;;;;;;;4.25;2.42;;;6.60;99.90;;;;;;4850113;29;20221;-70
2021/03/16 08:43:10;;;;;;;9.00;3.00;;;6.60;99.90;;;;;;4840686;29;20241;-72
2021/03/16 08:45:36;;;;;;;4.25;2.40;;;6.70;99.90;;;;;;4867433;29;20307;-71
2021/03/16 08:48:03;;;;;;;5.63;2.55;;;6.80;99.90;;;;;;4859676;29;20216;-72
2021/03/16 08:50:29;;;;;;;4.80;2.63;;;6.80;99.90;;;;;;4865808;29;20259;-71
2021/03/16 08:52:56;;;;;;;6.43;2.28;;;6.90;99.90;;;;;;4877458;29;20263;-72
2021/03/16 08:55:24;;;;;;;7.78;3.28;;;6.90;99.90;;;;;;4870230;29;20217;-72
2021/03/16 08:57:52;;;;;;;7.53;2.63;;;7.00;99.90;;;;;;4859146;29;20251;-71
2021/03/16 09:00:24;;;;;;;4.40;2.20;;;7.00;99.90;;;;;;4861042;29;20232;-72
2021/03/16 09:02:50;;;;;;;5.90;2.10;;;7.20;99.90;;;;;;4844441;29;20213;-72
2021/03/16 09:05:21;;;;;;;5.88;2.20;;;7.30;99.90;;;;;;4872001;29;20215;-71
2021/03/16 09:07:47;;;;;;;4.00;2.10;;;7.30;99.90;;;;;;4881416;29;20540;-72
2021/03/16 09:10:16;;;;;;;7.57;2.80;;;7.30;99.90;;;;;;4865111;29;20328;-72
2021/03/16 09:12:45;;;;;;;7.38;2.85;;;7.40;99.90;;;;;;4874841;29;20577;-72
2021/03/16 09:15:14;;;;;;;7.13;3.92;;;7.40;99.90;;;;;;4852336;29;20237;-71
2021/03/16 09:17:42;;;;;;;3.88;2.30;;;7.50;99.90;;;;;;4844955;29;20273;-72
2021/03/16 09:20:11;;;;;;;2.75;2.10;;;7.50;99.90;;;;;;4844352;29;20205;-72
2021/03/16 09:22:38;;;;;;;3.55;2.20;;;7.50;99.90;;;;;;4866024;29;20267;-72
2021/03/16 09:25:06;;;;;;;9.25;1.95;;;7.50;99.90;;;;;;4880784;29;20219;-72
2021/03/16 09:27:33;;;;;;;1.75;1.65;;;7.50;99.90;;;;;;4880215;29;20215;-72
2021/03/16 09:29:59;;;;;;;3.88;1.83;;;7.50;99.90;;;;;;4874122;29;20318;-72
2021/03/16 09:32:27;;;;;;;10.23;2.33;;;7.50;99.90;;;;;;4878471;29;20229;-72
2021/03/16 09:34:53;;;;;;;5.35;2.00;;;7.50;99.90;;;;;;4873243;29;20208;-73
2021/03/16 09:37:19;;;;;;;8.40;2.28;;;7.50;99.90;;;;;;4874014;29;20240;-72
2021/03/16 09:39:57;;;;;;;6.97;2.22;;;7.40;99.90;;;;;;4873385;29;20204;-73
2021/03/16 09:42:35;;;;;;;7.97;2.60;;;7.40;99.90;;;;;;4873397;29;20232;-73
2021/03/16 09:45:04;;;;;;;8.95;2.53;;;7.40;99.90;;;;;;4873673;29;20203;-73
2021/03/16 09:47:32;;;;;;;11.07;3.40;;;7.40;99.90;;;;;;4872656;29;20232;-72
2021/03/16 09:50:14;;;;;;;7.90;2.15;;;7.40;99.90;;;;;;4862226;29;20236;-72
2021/03/16 09:52:40;;;;;;;6.43;2.25;;;7.40;99.90;;;;;;4852587;29;20662;-72
2021/03/16 09:55:08;;;;;;;5.25;2.50;;;7.50;99.90;;;;;;4854459;29;20213;-72
2021/03/16 09:57:37;;;;;;;6.13;2.28;;;7.50;99.90;;;;;;4854137;29;20334;-73
2021/03/16 10:00:13;;;;;;;3.85;1.95;;;7.50;99.90;;;;;;4861633;29;20207;-72
2021/03/16 10:02:41;;;;;;;5.75;2.35;;;7.40;99.90;;;;;;4869675;29;20276;-73
2021/03/16 10:05:10;;;;;;;6.82;2.15;;;7.40;99.90;;;;;;4856815;29;20213;-73
2021/03/16 10:07:37;;;;;;;2.72;2.17;;;7.40;99.90;;;;;;4844861;29;20312;-72
2021/03/16 10:10:15;;;;;;;7.55;3.40;;;7.40;99.90;;;;;;4874993;29;20245;-72
2021/03/16 10:12:51;;;;;;;6.85;4.13;;;7.40;99.90;;;;;;4861801;29;20219;-72
2021/03/16 10:15:25;;;;;;;6.90;2.92;;;7.50;99.90;;;;;;4856643;29;20217;-72
2021/03/16 10:17:54;;;;;;;4.35;2.50;;;7.50;99.90;;;;;;4847637;29;20215;-71
2021/03/16 10:20:24;;;;;;;7.60;2.10;;;7.50;99.90;;;;;;4871774;29;20261;-72
2021/03/16 10:22:59;;;;;;;10.13;2.35;;;7.60;99.90;;;;;;4859752;29;20224;-72
2021/03/16 10:25:28;;;;;;;6.55;2.10;;;7.60;99.90;;;;;;4849236;29;20217;-72
2021/03/16 10:28:03;;;;;;;7.40;2.78;;;7.70;99.90;;;;;;4845435;29;20252;-72
2021/03/16 10:30:35;;;;;;;7.25;2.20;;;7.80;99.90;;;;;;4849102;29;20320;-72
2021/03/16 10:33:03;;;;;;;6.80;2.22;;;7.80;99.90;;;;;;4852154;29;20212;-73
2021/03/16 10:35:30;;;;;;;7.78;2.50;;;7.90;99.90;;;;;;4878659;29;20219;-72
2021/03/16 10:37:57;;;;;;;4.18;2.97;;;7.90;99.90;;;;;;4880220;29;20535;-72
2021/03/16 10:40:23;;;;;;;14.02;2.97;;;7.90;99.90;;;;;;4880015;29;20208;-72
2021/03/16 10:42:50;;;;;;;7.95;2.55;;;8.00;99.90;;;;;;4877264;29;20208;-73
2021/03/16 10:45:17;;;;;;;2.85;2.60;;;7.90;99.90;;;;;;4861649;29;20220;-73
2021/03/16 10:47:44;;;;;;;5.18;2.05;;;7.90;99.90;;;;;;4861143;29;20617;-73
2021/03/16 10:50:12;;;;;;;3.08;2.30;;;7.90;99.90;;;;;;4843090;29;20233;-73
2021/03/16 10:52:38;;;;;;;7.88;2.20;;;7.90;99.90;;;;;;4842546;29;20685;-72
2021/03/16 10:55:05;;;;;;;5.78;2.35;;;8.00;99.90;;;;;;4857499;29;20213;-71
2021/03/16 10:57:32;;;;;;;11.20;5.05;;;7.90;99.90;;;;;;4861818;29;20209;-71
2021/03/16 10:59:59;;;;;;;9.75;3.47;;;8.00;99.90;;;;;;4851923;29;20268;-73
2021/03/16 11:02:25;;;;;;;9.63;3.00;;;8.00;99.90;;;;;;4851831;29;20248;-73
2021/03/16 11:04:51;;;;;;;5.32;2.75;;;7.90;99.90;;;;;;4860745;29;20204;-73
2021/03/16 11:07:18;;;;;;;4.82;2.45;;;8.00;99.90;;;;;;4860453;29;20219;-73
2021/03/16 11:09:45;;;;;;;8.57;3.00;;;8.00;99.90;;;;;;4861220;29;20236;-73
2021/03/16 11:12:11;;;;;;;7.18;2.22;;;8.10;99.90;;;;;;4858248;29;20235;-73
2021/03/16 11:14:37;;;;;;;4.75;2.85;;;8.20;99.90;;;;;;4860966;29;20212;-73
2021/03/16 11:17:04;;;;;;;10.10;2.88;;;8.30;99.90;;;;;;4856590;29;20236;-73
2021/03/16 11:19:30;;;;;;;4.90;2.60;;;8.50;99.90;;;;;;4858490;29;20212;-73
2021/03/16 11:21:56;;;;;;;4.10;3.60;;;8.50;99.90;;;;;;4860665;29;20232;-73
2021/03/16 11:24:24;;;;;;;6.13;3.88;;;8.40;99.90;;;;;;4852305;29;20219;-73
2021/03/16 11:26:50;;;;;;;3.47;2.85;;;8.50;99.90;;;;;;4872001;29;20212;-73
2021/03/16 11:29:16;;;;;;;8.10;2.85;;;8.50;99.90;;;;;;4879379;29;20227;-74
2021/03/16 11:31:43;;;;;;;8.63;3.67;;;8.60;99.90;;;;;;4876971;29;20236;-74
2021/03/16 11:34:09;;;;;;;5.03;2.95;;;8.60;99.90;;;;;;4870243;29;20216;-74
2021/03/16 11:36:35;;;;;;;7.70;3.15;;;8.70;99.90;;;;;;4864470;29;20692;-74
2021/03/16 11:39:02;;;;;;;11.23;4.20;;;8.70;99.90;;;;;;4879433;29;20232;-74
2021/03/16 11:41:29;;;;;;;7.32;3.80;;;8.80;99.90;;;;;;4876680;29;20273;-73
2021/03/16 11:43:55;;;;;;;7.20;3.58;;;8.80;99.90;;;;;;4879203;29;20212;-73
2021/03/16 11:46:21;;;;;;;4.78;3.50;;;8.80;99.90;;;;;;4866670;29;20212;-74
2021/03/16 11:48:47;;;;;;;4.50;3.45;;;8.80;99.90;;;;;;4855004;29;20202;-74
2021/03/16 11:51:14;;;;;;;7.57;3.25;;;8.80;99.90;;;;;;4849256;29;20236;-73
2021/03/16 11:53:40;;;;;;;6.78;3.00;;;8.70;99.90;;;;;;4848570;29;20217;-74
2021/03/16 11:56:07;;;;;;;4.75;3.20;;;8.70;99.90;;;;;;4858832;29;20220;-73
2021/03/16 11:58:34;;;;;;;8.88;6.00;;;8.70;99.90;;;;;;4859921;29;20213;-73
2021/03/16 12:01:00;;;;;;;6.00;3.53;;;8.60;99.90;;;;;;4859543;29;20232;-72
2021/03/16 12:03:27;;;;;;;6.82;3.53;;;8.80;99.90;;;;;;4858728;29;20216;-72
2021/03/16 12:05:53;;;;;;;5.15;3.63;;;8.70;99.90;;;;;;4858727;29;20775;-72
2021/03/16 12:08:19;;;;;;;6.63;3.75;;;8.70;99.90;;;;;;4850969;29;20221;-72
2021/03/16 12:10:46;;;;;;;6.47;3.88;;;8.70;99.90;;;;;;4849772;29;20570;-72
2021/03/16 12:13:12;;;;;;;8.95;4.30;;;8.70;99.90;;;;;;4859573;29;20209;-72
2021/03/16 12:15:39;;;;;;;4.43;4.03;;;8.60;99.90;;;;;;4859872;29;20259;-72
2021/03/16 12:18:05;;;;;;;6.78;4.63;;;8.50;99.90;;;;;;4860125;29;20220;-74
2021/03/16 12:20:32;;;;;;;5.38;4.18;;;8.60;99.90;;;;;;4860483;29;20277;-72
2021/03/16 12:22:58;;;;;;;6.53;4.93;;;8.60;99.90;;;;;;4859932;29;20205;-74
2021/03/16 12:25:25;;;;;;;9.57;4.35;;;8.60;99.90;;;;;;4852103;29;20221;-74
2021/03/16 12:27:51;;;;;;;8.25;3.60;;;8.60;99.90;;;;;;4855047;29;20233;-74
2021/03/16 12:30:18;;;;;;;8.65;4.18;;;8.60;99.90;;;;;;4859238;29;20721;-74
2021/03/16 12:32:45;;;;;;;5.53;3.83;;;8.60;99.90;;;;;;4859504;29;20276;-74
2021/03/16 12:35:13;;;;;;;6.03;4.22;;;8.60;99.90;;;;;;4859454;29;20215;-72
2021/03/16 12:37:40;;;;;;;9.27;5.47;;;8.50;99.90;;;;;;4859286;29;20246;-72
2021/03/16 12:40:08;;;;;;;6.15;3.45;;;8.50;99.90;;;;;;4859434;29;20204;-72
2021/03/16 12:42:35;;;;;;;6.25;4.18;;;8.50;99.90;;;;;;4850890;29;20217;-71
2021/03/16 12:45:04;;;;;;;4.10;3.67;;;8.60;99.90;;;;;;4852021;29;20223;-72
2021/03/16 12:47:30;;;;;;;4.47;3.83;;;8.60;99.90;;;;;;4860086;29;20208;-71
2021/03/16 12:49:57;;;;;;;9.23;4.30;;;8.50;99.90;;;;;;4860081;29;20239;-72
2021/03/16 12:52:23;;;;;;;7.32;4.10;;;8.50;99.90;;;;;;4859240;29;20228;-72
2021/03/16 12:54:50;;;;;;;6.43;3.63;;;8.50;99.90;;;;;;4859313;29;20220;-72
2021/03/16 12:57:17;;;;;;;6.20;4.30;;;8.60;99.90;;;;;;4859275;29;20576;-72
2021/03/16 12:59:43;;;;;;;8.80;3.50;;;8.60;99.90;;;;;;4858380;29;20208;-72
2021/03/16 13:02:10;;;;;;;3.15;2.60;;;8.60;99.90;;;;;;4858580;29;20232;-72
2021/03/16 13:04:36;;;;;;;4.97;2.60;;;8.50;99.90;;;;;;4855699;29;20217;-71
2021/03/16 13:07:03;;;;;;;13.02;5.07;;;8.50;99.90;;;;;;4847623;29;20212;-72
2021/03/16 13:09:30;;;;;;;10.38;3.83;;;8.50;99.90;;;;;;4872856;29;20204;-73
2021/03/16 13:11:56;;;;;;;10.35;3.78;;;8.60;99.90;;;;;;4856436;29;20224;-73
2021/03/16 13:14:23;;;;;;;4.13;3.00;;;8.60;99.90;;;;;;4859351;29;20669;-73
2021/03/16 13:16:49;;;;;;;4.35;3.10;;;8.50;99.90;;;;;;4857076;29;20219;-72
2021/03/16 13:19:15;;;;;;;6.22;3.35;;;8.50;99.90;;;;;;4848437;29;20627;-73
2021/03/16 13:21:42;;;;;;;7.57;3.38;;;8.40;99.90;;;;;;4852653;29;20225;-72
2021/03/16 13:24:10;;;;;;;8.10;4.00;;;8.40;99.90;;;;;;4860541;29;20272;-72
2021/03/16 13:26:36;;;;;;;5.55;3.35;;;8.40;99.90;;;;;;4859174;29;20208;-71
2021/03/16 13:29:04;;;;;;;6.40;2.97;;;8.40;99.90;;;;;;4858235;29;20894;-72
2021/03/16 13:31:30;;;;;;;6.25;2.45;;;8.50;99.90;;;;;;4857041;29;20368;-72
2021/03/16 13:33:57;;;;;;;7.93;2.90;;;8.40;99.90;;;;;;4854606;29;20299;-71
2021/03/16 13:36:23;;;;;;;4.78;2.60;;;8.40;99.90;;;;;;4876948;29;20558;-71
2021/03/16 13:38:49;;;;;;;4.60;2.47;;;8.40;99.90;;;;;;4863146;29;20213;-72
2021/03/16 13:41:17;;;;;;;10.45;3.80;;;8.40;99.90;;;;;;4862305;29;20702;-72
2021/03/16 13:43:43;;;;;;;3.63;2.28;;;8.40;99.90;;;;;;4862248;29;20205;-72
2021/03/16 13:46:10;;;;;;;2.70;2.03;;;8.40;99.90;;;;;;4863088;29;20227;-72
2021/03/16 13:48:36;;;;;;;5.32;2.00;;;8.40;99.90;;;;;;4877738;29;20279;-72
2021/03/16 13:51:02;;;;;;;2.85;1.60;;;8.40;99.90;;;;;;4862414;29;20232;-72
2021/03/16 13:53:29;;;;;;;2.58;1.85;;;8.50;99.90;;;;;;4859175;29;20297;-72
2021/03/16 13:55:55;;;;;;;5.25;2.28;;;8.60;99.90;;;;;;4861994;29;20323;-72
2021/03/16 13:58:22;;;;;;;6.07;2.20;;;8.50;99.90;;;;;;4861972;29;20201;-72
2021/03/16 14:00:49;;;;;;;3.63;2.10;;;8.60;99.90;;;;;;4858588;29;20244;-72
2021/03/16 14:03:15;;;;;;;3.05;2.28;;;8.60;99.90;;;;;;4861466;29;20201;-72
2021/03/16 14:05:41;;;;;;;4.47;2.45;;;8.60;99.90;;;;;;4861022;29;20212;-71
2021/03/16 14:08:07;;;;;;;3.60;2.00;;;8.60;99.90;;;;;;4861350;29;20220;-71
2021/03/16 14:10:34;;;;;;;3.60;1.48;;;8.60;99.90;;;;;;4861567;29;20304;-72
2021/03/16 14:13:00;;;;;;;4.45;2.13;;;8.60;99.90;;;;;;4861432;29;20273;-72
2021/03/16 14:15:27;;;;;;;4.85;1.83;;;8.60;99.90;;;;;;4866515;29;20211;-71
2021/03/16 14:17:53;;;;;;;2.42;2.08;;;8.60;99.90;;;;;;4864360;29;20693;-70
2021/03/16 14:20:20;;;;;;;3.22;1.77;;;8.60;99.90;;;;;;4851637;29;20232;-71
2021/03/16 14:22:48;;;;;;;2.33;1.88;;;8.60;99.90;;;;;;4853500;29;20244;-71
2021/03/16 14:25:14;;;;;;;10.55;7.00;;;8.60;99.90;;;;;;4862086;29;20216;-71
2021/03/16 14:27:41;;;;;;;3.75;1.90;;;8.70;99.90;;;;;;4856659;29;20212;-71
2021/03/16 14:30:09;;;;;;;2.67;2.00;;;8.60;99.90;;;;;;4856372;29;20236;-72
2021/03/16 14:32:37;;;;;;;3.17;2.03;;;8.60;99.90;;;;;;4843423;29;20503;-69
2021/03/16 14:35:03;;;;;;;7.35;2.20;;;8.60;99.90;;;;;;4843293;29;20213;-71
2021/03/16 14:37:29;;;;;;;7.65;1.75;;;8.60;99.90;;;;;;4848008;29;20220;-72
2021/03/16 14:39:56;;;;;;;5.95;2.67;;;8.60;99.90;;;;;;4856799;29;20293;-71
2021/03/16 14:42:22;;;;;;;8.38;2.10;;;8.60;99.90;;;;;;4843076;29;20241;-71
2021/03/16 14:44:50;;;;;;;4.00;2.28;;;8.60;99.90;;;;;;4843662;29;20228;-72
2021/03/16 14:47:16;;;;;;;2.10;1.83;;;8.60;99.90;;;;;;4844038;29;20217;-73
2021/03/16 14:49:44;;;;;;;6.63;1.60;;;8.60;99.90;;;;;;4846335;29;20233;-72
2021/03/16 14:52:10;;;;;;;4.05;1.38;;;8.60;99.90;;;;;;4843135;29;20237;-72
2021/03/16 14:54:37;;;;;;;1.40;1.20;;;8.60;99.90;;;;;;4845853;29;20228;-70
2021/03/16 14:57:03;;;;;;;2.72;1.60;;;8.60;99.90;;;;;;4845549;29;20217;-70
2021/03/16 14:59:30;;;;;;;2.40;1.80;;;8.50;99.90;;;;;;4844581;29;20213;-70
2021/03/16 15:01:56;;;;;;;2.70;1.83;;;8.50;99.90;;;;;;4856089;29;20232;-71
2021/03/16 15:04:22;;;;;;;4.45;1.60;;;8.50;99.90;;;;;;4862971;29;20224;-70
2021/03/16 15:06:49;;;;;;;3.03;1.83;;;8.50;99.90;;;;;;4862561;29;20606;-70
2021/03/16 15:09:16;;;;;;;5.20;1.52;;;8.50;99.90;;;;;;4862183;29;20209;-71
2021/03/16 15:11:43;;;;;;;2.80;1.50;;;8.50;99.90;;;;;;4861081;29;20251;-70
2021/03/16 15:14:09;;;;;;;3.70;1.80;;;8.50;99.90;;;;;;4860701;29;20670;-70
2021/03/16 15:16:35;;;;;;;2.10;1.10;;;8.40;99.90;;;;;;4861134;29;20573;-70
2021/03/16 15:19:04;;;;;;;5.65;2.63;;;8.40;99.90;;;;;;4861543;29;20221;-70
2021/03/16 15:21:30;;;;;;;4.47;2.13;;;8.40;99.90;;;;;;4860402;29;20224;-71
2021/03/16 15:23:57;;;;;;;4.43;1.80;;;8.40;99.90;;;;;;4862769;29;20587;-70
2021/03/16 15:26:23;;;;;;;2.60;1.67;;;8.40;99.90;;;;;;4856700;29;20224;-71
2021/03/16 15:28:50;;;;;;;2.42;1.58;;;8.30;99.90;;;;;;4877925;29;20215;-72
2021/03/16 15:31:16;;;;;;;3.50;2.15;;;8.30;99.90;;;;;;4855805;29;20251;-70
2021/03/16 15:33:42;;;;;;;2.70;1.80;;;8.20;99.90;;;;;;4851510;29;20677;-70
2021/03/16 15:36:09;;;;;;;3.72;1.63;;;8.20;99.90;;;;;;4860255;29;20296;-70
2021/03/16 15:38:35;;;;;;;1.65;1.55;;;8.10;99.90;;;;;;4877261;29;20255;-70
2021/03/16 15:41:03;;;;;;;1.95;1.33;;;8.10;99.90;;;;;;4861893;29;20277;-71
2021/03/16 15:43:29;;;;;;;2.15;2.00;;;8.10;99.90;;;;;;4859806;29;20627;-71
2021/03/16 15:45:55;;;;;;;3.33;1.95;;;8.10;99.90;;;;;;4860021;29;20209;-71
2021/03/16 15:48:21;;;;;;;17.35;3.60;;;8.00;99.90;;;;;;4860895;29;20216;-70
2021/03/16 15:50:48;;;;;;;3.63;1.90;;;8.00;99.90;;;;;;4862552;29;20246;-70
2021/03/16 15:53:14;;;;;;;2.85;1.63;;;8.00;99.90;;;;;;4865700;29;20291;-71
2021/03/16 15:55:40;;;;;;;4.55;1.75;;;8.00;99.90;;;;;;4867634;29;20204;-71
2021/03/16 15:58:07;;;;;;;4.13;1.48;;;7.90;99.90;;;;;;4874231;29;20208;-71
2021/03/16 16:00:34;;;;;;;6.93;2.30;;;7.90;99.90;;;;;;4843967;29;20228;-72
2021/03/16 16:03:01;;;;;;;8.93;2.05;;;7.90;99.90;;;;;;4867529;29;20234;-72
2021/03/16 16:05:27;;;;;;;6.60;2.10;;;7.90;99.90;;;;;;4858795;29;20307;-69
2021/03/16 16:07:54;;;;;;;9.07;2.50;;;7.80;99.90;;;;;;4860049;29;20204;-70
2021/03/16 16:10:20;;;;;;;2.55;2.33;;;7.80;99.90;;;;;;4860213;29;20228;-71
2021/03/16 16:12:46;;;;;;;4.40;3.00;;;7.80;99.90;;;;;;4860767;29;20281;-70
2021/03/16 16:15:15;;;;;;;2.20;2.00;;;7.70;99.90;;;;;;4860641;29;20578;-70
2021/03/16 16:17:41;;;;;;;3.42;1.95;;;7.70;99.90;;;;;;4859248;29;20304;-73
2021/03/16 16:20:08;;;;;;;7.30;6.80;;;7.60;99.90;;;;;;4857328;29;20208;-73
2021/03/16 16:22:35;;;;;;;2.58;1.00;;;7.50;99.90;;;;;;4859671;29;20573;-74
2021/03/16 16:25:01;;;;;;;1.50;0.85;;;7.50;99.90;;;;;;4859613;29;21046;-72
2021/03/16 16:27:27;;;;;;;4.95;1.50;;;7.40;99.90;;;;;;4857194;29;20205;-73
2021/03/16 16:29:53;;;;;;;0.98;0.98;;;7.40;99.90;;;;;;4858396;29;20221;-72
2021/03/16 16:32:20;;;;;;;4.57;1.70;;;7.30;99.90;;;;;;4857455;29;20307;-73
2021/03/16 16:34:47;;;;;;;1.30;0.68;;;7.30;99.90;;;;;;4857497;29;20209;-73
2021/03/16 16:37:13;;;;;;;1.45;0.98;;;7.30;99.90;;;;;;4859301;29;20205;-73
2021/03/16 16:39:41;;;;;;;1.63;1.48;;;7.30;99.90;;;;;;4842487;29;20365;-71
2021/03/16 16:42:09;;;;;;;1.50;1.17;;;7.30;99.90;;;;;;4853371;29;20232;-71
2021/03/16 16:44:35;;;;;;;4.68;1.40;;;7.30;99.90;;;;;;4879599;29;20274;-73
2021/03/16 16:47:02;;;;;;;2.00;1.55;;;7.30;99.90;;;;;;4862874;29;20579;-74
2021/03/16 16:49:30;;;;;;;1.85;1.38;;;7.30;99.90;;;;;;4862067;29;20264;-74
2021/03/16 16:51:56;;;;;;;2.65;2.10;;;7.20;99.90;;;;;;4863147;29;20239;-74
2021/03/16 16:54:22;;;;;;;3.53;1.55;;;7.10;99.90;;;;;;4880622;29;20235;-73
2021/03/16 16:56:49;;;;;;;1.63;1.45;;;7.00;99.90;;;;;;4882487;29;20216;-74
2021/03/16 16:59:16;;;;;;;1.40;1.40;;;6.90;99.90;;;;;;4882016;29;20212;-74
2021/03/16 17:01:43;;;;;;;2.22;1.27;;;6.80;99.90;;;;;;4874372;29;20236;-74
2021/03/16 17:04:09;;;;;;;2.00;1.65;;;6.80;99.90;;;;;;4864759;29;20209;-74
2021/03/16 17:06:36;;;;;;;2.95;1.20;;;6.70;99.90;;;;;;4858544;29;20588;-73
2021/03/16 17:09:02;;;;;;;6.63;1.60;;;6.70;99.90;;;;;;4873594;29;20213;-73
2021/03/16 17:11:29;;;;;;;1.65;1.20;;;6.60;99.90;;;;;;4866213;29;20228;-75
2021/03/16 17:13:55;;;;;;;1.40;1.30;;;6.60;99.90;;;;;;4866379;29;20216;-74
2021/03/16 17:16:21;;;;;;;5.13;1.42;;;6.50;99.90;;;;;;4865997;29;20205;-73
2021/03/16 17:18:47;;;;;;;1.83;1.50;;;6.40;99.90;;;;;;4853115;29;20228;-74
2021/03/16 17:21:14;;;;;;;2.92;1.50;;;6.30;99.90;;;;;;4863365;29;20236;-73
2021/03/16 17:23:41;;;;;;;4.18;1.48;;;6.30;99.90;;;;;;4863914;29;20212;-73
2021/03/16 17:26:07;;;;;;;3.30;2.03;;;6.20;99.90;;;;;;4850372;29;20221;-73
2021/03/16 17:28:33;;;;;;;2.42;1.48;;;6.20;99.90;;;;;;4845105;29;20289;-74
2021/03/16 17:30:59;;;;;;;2.05;1.50;;;6.10;99.90;;;;;;4865451;29;20840;-72
2021/03/16 17:33:26;;;;;;;2.33;2.08;;;6.00;99.90;;;;;;4881581;29;20224;-74
2021/03/16 17:35:52;;;;;;;4.43;1.85;;;6.00;99.90;;;;;;4865338;29;20667;-74
2021/03/16 17:38:18;;;;;;;4.28;1.63;;;5.90;99.90;;;;;;4867367;29;20208;-73
2021/03/16 17:40:45;;;;;;;3.17;2.88;;;5.90;99.90;;;;;;4870458;29;20320;-73
2021/03/16 17:43:11;;;;;;;3.60;2.10;;;5.80;99.90;;;;;;4863563;29;20215;-73
2021/03/16 17:45:38;;;;;;;1.95;1.83;;;5.80;99.90;;;;;;4869794;29;20208;-73
2021/03/16 17:48:05;;;;;;;1.63;1.52;;;5.70;99.90;;;;;;4878224;29;20216;-74
2021/03/16 17:50:31;;;;;;;2.40;1.88;;;5.70;99.90;;;;;;4866896;29;20300;-73
2021/03/16 17:52:57;;;;;;;2.90;2.00;;;5.60;99.90;;;;;;4881862;29;20697;-74
2021/03/16 17:55:23;;;;;;;2.97;1.95;;;5.60;99.90;;;;;;4866475;29;20250;-73